Time;durP1;ratioP1;P1;durP2;ratioP2;P2;SDS_P1;SDS_P2;PMS_P1;PMS_P2;Temp;Humidity;BMP_temperature;BMP_pressure;BME280_temperature;BME280_humidity;BME280_pressure;Samples;Min_cycle;Max_cycle;Signal;HPM_P1;HPM_P2
2024/01/28 00:01:05;;;;;;;;;;;11.90;47.20;;;12.02;50.32;102557.91;5033917;28;19925;-35
2024/01/28 00:03:33;;;;;;;;;;;11.90;47.20;;;12.05;49.67;102559.31;5038631;28;19929;-35
2024/01/28 00:06:01;;;;;;;;;;;11.90;47.20;;;12.06;50.59;102561.16;5039762;28;19935;-35
2024/01/28 00:08:31;;;;;;;;;;;11.90;47.10;;;12.09;50.20;102561.59;5040492;28;20297;-36
2024/01/28 00:10:59;;;;;;;;;;;11.90;47.10;;;12.12;50.34;102550.19;5039331;28;20020;-36
2024/01/28 00:13:28;;;;;;;;;;;11.90;47.10;;;12.14;50.27;102548.84;5039707;28;19988;-35
2024/01/28 00:15:56;;;;;;;;;;;12.00;47.20;;;12.15;50.02;102543.13;5040141;28;19992;-35
2024/01/28 00:18:24;;;;;;;;;;;12.00;47.10;;;12.18;49.59;102536.06;5027911;28;19933;-34
2024/01/28 00:20:52;;;;;;;;;;;12.00;47.10;;;12.22;49.81;102535.84;5026246;28;20483;-31
2024/01/28 00:23:20;;;;;;;;;;;12.00;47.10;;;12.23;49.73;102535.16;5033457;28;19956;-36
2024/01/28 00:25:50;;;;;;;;;;;12.00;47.10;;;12.23;49.93;102541.09;5033841;28;20460;-37
2024/01/28 00:28:18;;;;;;;;;;;12.10;47.10;;;12.25;49.59;102533.81;5033794;28;19987;-36
2024/01/28 00:30:46;;;;;;;;;;;12.10;47.10;;;12.28;49.08;102529.22;5033596;28;20378;-36
2024/01/28 00:33:14;;;;;;;;;;;12.10;47.00;;;12.30;50.12;102532.91;5032495;28;19935;-36
2024/01/28 00:35:42;;;;;;;;;;;12.10;47.60;;;12.32;49.61;102531.56;5033232;28;19925;-36
2024/01/28 00:38:10;;;;;;;;;;;12.10;47.00;;;12.26;49.08;102515.53;5033539;28;20352;-35
2024/01/28 00:40:38;;;;;;;;;;;12.20;47.10;;;12.32;49.67;102506.41;5033631;28;20377;-36
2024/01/28 00:43:07;;;;;;;;;;;12.20;47.10;;;12.35;49.84;102502.75;5033180;28;19972;-37
2024/01/28 00:45:35;;;;;;;;;;;12.20;47.20;;;12.35;49.97;102506.88;5033658;28;19925;-37
2024/01/28 00:48:03;;;;;;;;;;;12.20;47.20;;;12.44;49.92;102503.25;5033468;28;19929;-36
2024/01/28 00:50:32;;;;;;;;;;;12.20;47.20;;;12.50;49.54;102499.16;5033788;28;19925;-36
2024/01/28 00:53:00;;;;;;;;;;;12.30;47.20;;;12.51;49.38;102501.00;5032908;28;19925;-37
2024/01/28 00:55:28;;;;;;;;;;;12.30;47.00;;;12.48;49.45;102510.56;5033847;28;20035;-37
2024/01/28 00:57:56;;;;;;;;;;;12.40;47.00;;;12.51;49.40;102516.06;5040147;28;20282;-37
2024/01/28 01:00:26;;;;;;;;;;;12.40;46.90;;;12.43;49.29;102497.31;5033264;28;19957;-35
2024/01/28 01:02:54;;;;;;;;;;;12.40;46.80;;;12.51;48.94;102506.03;5032733;28;19925;-36
2024/01/28 01:05:22;;;;;;;;;;;12.40;46.80;;;12.49;49.07;102502.34;5033441;28;19932;-37
2024/01/28 01:07:50;;;;;;;;;;;12.40;47.40;;;12.44;49.55;102504.19;5033730;28;19925;-36
2024/01/28 01:10:20;;;;;;;;;;;12.40;46.80;;;12.38;49.21;102500.72;5033435;28;19971;-36
2024/01/28 01:12:47;;;;;;;;;;;12.30;46.80;;;12.28;49.39;102489.00;5032825;28;19936;-37
2024/01/28 01:15:15;;;;;;;;;;;12.30;46.90;;;12.30;49.08;102497.72;5032855;28;19929;-36
2024/01/28 01:17:49;;;;;;;;;;;12.20;46.90;;;12.26;50.26;102495.44;5033641;28;19929;-36
2024/01/28 01:20:18;;;;;;;;;;;12.20;47.00;;;12.22;49.65;102488.09;5033459;28;19932;-37
2024/01/28 01:22:46;;;;;;;;;;;12.10;46.90;;;12.15;50.20;102485.31;5033026;28;19991;-37
2024/01/28 01:25:14;;;;;;;;;;;12.10;47.00;;;12.15;49.17;102485.31;5032894;28;20393;-37
2024/01/28 01:27:45;;;;;;;;;;;12.00;46.90;;;12.09;49.75;102486.22;5033147;28;20297;-37
2024/01/28 01:30:14;;;;;;;;;;;12.00;47.00;;;12.06;50.26;102490.78;5033073;28;19925;-36
2024/01/28 01:32:42;;;;;;;;;;;12.00;47.00;;;12.05;49.99;102483.00;5032445;28;20308;-36
2024/01/28 01:35:12;;;;;;;;;;;11.90;46.90;;;12.03;49.89;102482.75;5032640;28;19925;-37
2024/01/28 01:37:41;;;;;;;;;;;11.90;47.00;;;12.00;49.62;102478.88;5033169;28;20304;-37
2024/01/28 01:40:11;;;;;;;;;;;11.90;47.00;;;11.97;49.55;102474.28;5032767;28;20020;-37
2024/01/28 01:42:39;;;;;;;;;;;11.80;46.90;;;11.97;49.85;102479.31;5032568;28;20471;-37
2024/01/28 01:45:08;;;;;;;;;;;11.80;46.90;;;11.95;49.40;102470.63;5032746;28;20384;-36
2024/01/28 01:47:36;;;;;;;;;;;11.80;46.90;;;11.96;50.33;102476.56;5036619;28;19929;-37
2024/01/28 01:50:05;;;;;;;;;;;11.80;46.90;;;11.87;49.37;102456.00;5036711;28;19932;-37
2024/01/28 01:52:35;;;;;;;;;;;11.80;46.90;;;11.94;50.09;102468.81;5036544;28;19932;-37
2024/01/28 01:55:03;;;;;;;;;;;11.80;46.90;;;11.98;49.26;102468.59;5036622;28;19968;-37
2024/01/28 01:57:31;;;;;;;;;;;11.80;46.80;;;11.99;49.86;102460.38;5057787;22;19956;-34
2024/01/28 01:59:59;;;;;;;;;;;11.80;46.80;;;12.02;49.28;102473.38;5056435;28;20445;-35
2024/01/28 02:02:27;;;;;;;;;;;11.80;46.80;;;12.04;49.25;102472.03;5055894;28;20216;-35
2024/01/28 02:04:56;;;;;;;;;;;11.90;46.80;;;12.08;49.48;102474.31;5056424;28;19925;-35
2024/01/28 02:07:25;;;;;;;;;;;11.90;46.80;;;12.09;49.46;102480.28;5056094;28;19948;-35
2024/01/28 02:09:54;;;;;;;;;;;11.90;46.80;;;12.12;49.49;102479.84;5056332;28;19932;-35
2024/01/28 02:12:22;;;;;;;;;;;11.90;46.80;;;12.06;49.54;102460.63;5055354;28;19987;-34
2024/01/28 02:14:50;;;;;;;;;;;12.00;46.90;;;12.19;49.32;102472.56;5056136;28;19929;-34
2024/01/28 02:17:18;;;;;;;;;;;12.00;46.80;;;12.21;49.28;102471.16;5055895;28;20019;-35
2024/01/28 02:19:46;;;;;;;;;;;12.00;46.80;;;12.23;49.13;102459.75;5055591;28;19975;-35
2024/01/28 02:22:14;;;;;;;;;;;12.00;46.70;;;12.25;49.84;102455.91;5055263;28;19975;-35
2024/01/28 02:24:43;;;;;;;;;;;12.10;46.80;;;12.29;49.93;102460.69;5056107;28;19924;-35
2024/01/28 02:27:11;;;;;;;;;;;12.10;46.90;;;12.30;49.40;102447.44;5055892;28;20055;-35
2024/01/28 02:29:39;;;;;;;;;;;12.10;47.00;;;12.32;49.23;102451.13;5056114;28;19971;-35
2024/01/28 02:32:08;;;;;;;;;;;12.10;47.00;;;12.35;49.43;102447.47;5059825;28;19924;-36
2024/01/28 02:34:36;;;;;;;;;;;12.20;47.00;;;12.43;49.79;102446.09;5070078;28;20684;-36
2024/01/28 02:37:04;;;;;;;;;;;12.20;46.90;;;12.43;49.57;102431.03;5069475;28;19925;-36
2024/01/28 02:39:33;;;;;;;;;;;12.20;46.80;;;12.44;49.18;102432.84;5068445;28;19987;-36
2024/01/28 02:42:02;;;;;;;;;;;12.30;46.70;;;12.44;49.36;102433.78;5055615;28;19932;-35
2024/01/28 02:44:30;;;;;;;;;;;12.30;46.70;;;12.44;49.00;102422.81;5046939;28;19935;-35
2024/01/28 02:47:01;;;;;;;;;;;12.30;46.60;;;12.45;49.60;102409.56;5055110;28;20388;-35
2024/01/28 02:49:29;;;;;;;;;;;12.30;46.50;;;12.43;49.12;102411.81;5055505;28;19951;-36
2024/01/28 02:51:57;;;;;;;;;;;12.30;46.50;;;12.40;49.49;102410.44;5055360;28;19929;-36
2024/01/28 02:54:25;;;;;;;;;;;12.30;46.50;;;12.35;49.60;102412.25;5054800;28;20006;-36
2024/01/28 02:56:53;;;;;;;;;;;12.30;46.50;;;12.31;49.43;102409.06;5060675;28;19924;-35
2024/01/28 02:59:22;;;;;;;;;;;12.20;46.50;;;12.26;49.38;102404.94;5055960;28;19929;-35
2024/01/28 03:01:50;;;;;;;;;;;12.20;46.60;;;12.22;49.20;102410.19;5055579;28;19924;-36
2024/01/28 03:04:18;;;;;;;;;;;12.10;46.60;;;12.19;49.28;102402.19;5054666;28;19925;-36
2024/01/28 03:06:46;;;;;;;;;;;12.10;46.70;;;12.16;49.72;102402.63;5055394;28;19925;-36
2024/01/28 03:09:14;;;;;;;;;;;12.00;46.60;;;12.12;49.79;102399.44;5055062;28;19931;-36
2024/01/28 03:11:42;;;;;;;;;;;12.00;46.80;;;12.09;49.52;102394.84;5055149;28;19947;-35
2024/01/28 03:14:10;;;;;;;;;;;12.00;46.80;;;12.05;49.59;102403.53;5054200;28;19970;-36
2024/01/28 03:16:40;;;;;;;;;;;11.90;46.70;;;12.01;49.29;102398.69;5054728;28;20002;-36
2024/01/28 03:19:08;;;;;;;;;;;11.90;46.70;;;11.99;49.65;102397.56;5054897;28;19924;-36
2024/01/28 03:21:36;;;;;;;;;;;11.90;46.80;;;11.97;50.12;102393.91;5055115;28;19924;-35
2024/01/28 03:24:04;;;;;;;;;;;11.80;46.80;;;11.93;49.84;102384.06;5054180;28;19931;-35
2024/01/28 03:26:34;;;;;;;;;;;11.80;46.70;;;11.93;49.26;102376.53;5046409;28;19925;-36
2024/01/28 03:29:02;;;;;;;;;;;11.80;46.80;;;11.92;49.67;102374.72;5055093;28;19931;-36
2024/01/28 03:31:30;;;;;;;;;;;11.80;46.80;;;11.92;49.87;102369.69;5054856;28;20003;-35
2024/01/28 03:33:59;;;;;;;;;;;11.80;46.80;;;11.91;49.40;102372.88;5054153;28;19931;-36
2024/01/28 03:36:27;;;;;;;;;;;11.80;46.70;;;11.93;49.64;102361.47;5054636;28;19925;-36
2024/01/28 03:38:55;;;;;;;;;;;11.80;46.70;;;11.93;49.81;102358.97;5054460;28;19925;-37
2024/01/28 03:41:23;;;;;;;;;;;11.80;46.70;;;11.94;49.07;102362.38;5054415;28;20476;-36
2024/01/28 03:43:51;;;;;;;;;;;11.80;46.60;;;11.96;49.60;102361.91;5054106;28;19928;-36
2024/01/28 03:46:19;;;;;;;;;;;11.80;46.60;;;11.95;48.99;102350.03;5054655;28;19925;-35
2024/01/28 03:48:47;;;;;;;;;;;11.80;46.60;;;12.02;49.43;102362.84;5054357;28;19956;-37
2024/01/28 03:51:16;;;;;;;;;;;11.80;46.60;;;12.04;49.77;102350.53;5054227;28;19924;-35
2024/01/28 03:53:44;;;;;;;;;;;11.80;46.60;;;12.06;49.59;102360.13;5053470;28;19925;-37
2024/01/28 03:56:12;;;;;;;;;;;11.90;46.50;;;12.09;49.72;102358.06;5054290;28;20346;-37
2024/01/28 03:58:40;;;;;;;;;;;11.90;46.50;;;12.12;49.22;102350.09;5061864;28;19925;-36
2024/01/28 04:01:08;;;;;;;;;;;11.90;46.50;;;12.16;48.94;102353.97;5054343;28;19925;-36
2024/01/28 04:03:37;;;;;;;;;;;12.00;46.50;;;12.18;48.76;102362.66;5045400;28;20326;-36
2024/01/28 04:06:05;;;;;;;;;;;12.00;46.50;;;12.21;48.82;102351.44;5054369;28;19925;-36
2024/01/28 04:08:35;;;;;;;;;;;12.00;46.50;;;12.24;49.28;102356.03;5053593;28;20001;-36
2024/01/28 04:11:05;;;;;;;;;;;12.00;46.60;;;12.28;49.37;102349.19;5054130;28;19925;-36
2024/01/28 04:13:33;;;;;;;;;;;12.10;46.70;;;12.28;49.10;102341.63;5053095;28;20391;-35
2024/01/28 04:16:00;;;;;;;;;;;12.10;46.60;;;12.37;49.53;102357.19;5053838;28;19931;-36
2024/01/28 04:18:28;;;;;;;;;;;12.20;46.70;;;12.40;49.31;102350.09;5054209;28;19933;-36
2024/01/28 04:20:57;;;;;;;;;;;12.20;46.50;;;12.44;48.67;102357.44;5053855;28;19979;-36
2024/01/28 04:23:24;;;;;;;;;;;12.30;46.40;;;12.46;48.78;102361.97;5053502;28;19925;-36
2024/01/28 04:25:54;;;;;;;;;;;12.30;46.30;;;12.47;48.82;102367.94;5053565;28;20364;-36
2024/01/28 04:28:23;;;;;;;;;;;12.30;46.20;;;12.48;49.04;102364.75;5053876;28;20024;-37
2024/01/28 04:30:51;;;;;;;;;;;12.30;46.10;;;12.48;48.68;102364.75;5053780;28;19940;-37
2024/01/28 04:33:19;;;;;;;;;;;12.40;46.20;;;12.46;48.49;102361.06;5053319;28;19931;-36
2024/01/28 04:35:47;;;;;;;;;;;12.40;46.20;;;12.40;49.17;102360.16;5053607;28;20015;-37
2024/01/28 04:38:15;;;;;;;;;;;12.30;46.10;;;12.37;49.22;102364.75;5053336;28;19929;-37
2024/01/28 04:40:43;;;;;;;;;;;12.30;46.20;;;12.32;49.13;102373.19;5053304;28;20426;-37
2024/01/28 04:43:12;;;;;;;;;;;12.20;46.20;;;12.26;49.37;102363.13;5052701;28;19928;-37
2024/01/28 04:45:40;;;;;;;;;;;12.20;46.30;;;12.22;49.37;102352.38;5053124;28;19964;-36
2024/01/28 04:48:08;;;;;;;;;;;12.10;46.30;;;12.16;49.25;102351.44;5053360;28;19925;-36
2024/01/28 04:50:37;;;;;;;;;;;12.10;46.40;;;12.12;49.84;102344.16;5045213;28;19979;-36
2024/01/28 04:53:05;;;;;;;;;;;12.00;46.40;;;12.07;49.85;102341.88;5052780;28;19932;-36
2024/01/28 04:55:34;;;;;;;;;;;12.00;46.50;;;12.03;49.97;102334.53;5053233;28;19944;-36
2024/01/28 04:58:02;;;;;;;;;;;11.90;46.50;;;11.92;49.10;102326.97;5061142;28;20354;-36
2024/01/28 05:00:31;;;;;;;;;;;11.90;46.50;;;11.97;49.61;102336.13;5052822;28;19926;-36
2024/01/28 05:02:59;;;;;;;;;;;11.80;46.50;;;11.93;49.47;102321.28;5052497;28;20015;-36
2024/01/28 05:05:27;;;;;;;;;;;11.80;46.50;;;11.91;49.54;102331.75;5052702;28;19925;-36
2024/01/28 05:07:55;;;;;;;;;;;11.80;46.50;;;11.89;49.61;102329.00;5052541;28;19925;-36
2024/01/28 05:10:23;;;;;;;;;;;11.80;46.50;;;11.88;49.76;102332.22;5053120;28;19931;-35
2024/01/28 05:12:51;;;;;;;;;;;11.70;46.50;;;11.87;49.27;102335.41;5051986;28;19968;-35
2024/01/28 05:15:19;;;;;;;;;;;11.70;46.40;;;11.86;49.11;102333.59;5054305;28;19931;-35
2024/01/28 05:17:49;;;;;;;;;;;11.70;46.40;;;11.86;48.81;102333.59;5052986;28;19937;-36
2024/01/28 05:20:17;;;;;;;;;;;11.70;46.40;;;11.88;50.01;102337.25;5052267;28;20373;-36
2024/01/28 05:22:45;;;;;;;;;;;11.70;46.40;;;11.90;49.67;102329.94;5051648;28;19983;-35
2024/01/28 05:25:13;;;;;;;;;;;11.70;46.40;;;11.89;49.25;102326.50;5052448;28;20303;-35
2024/01/28 05:27:42;;;;;;;;;;;11.70;46.40;;;11.93;49.57;102331.31;5052656;28;19925;-35
2024/01/28 05:30:10;;;;;;;;;;;11.80;46.50;;;11.97;49.47;102326.06;5052593;28;20007;-36
2024/01/28 05:32:38;;;;;;;;;;;11.80;46.50;;;12.00;49.14;102316.50;5052776;28;19928;-35
2024/01/28 05:35:08;;;;;;;;;;;11.80;46.40;;;12.00;49.01;102313.97;5052437;28;19971;-35
2024/01/28 05:37:37;;;;;;;;;;;11.80;46.40;;;12.09;49.01;102314.44;5052552;28;19967;-35
2024/01/28 05:40:08;;;;;;;;;;;11.80;46.30;;;12.09;48.55;102315.34;5053148;28;19974;-35
2024/01/28 05:42:36;;;;;;;;;;;11.90;46.30;;;12.12;49.46;102311.47;5051651;28;20348;-35
2024/01/28 05:45:04;;;;;;;;;;;11.90;46.20;;;12.14;48.90;102312.63;5052864;28;19932;-35
2024/01/28 05:47:32;;;;;;;;;;;11.90;46.20;;;12.15;48.90;102301.88;5052931;28;19935;-35
2024/01/28 05:50:00;;;;;;;;;;;12.00;46.30;;;12.22;49.22;102308.03;5052888;28;19924;-35
2024/01/28 05:52:30;;;;;;;;;;;12.00;46.40;;;12.24;48.59;102310.78;5051986;28;19925;-34
2024/01/28 05:54:57;;;;;;;;;;;12.00;46.40;;;12.28;49.16;102308.03;5052287;28;19925;-35
2024/01/28 05:57:27;;;;;;;;;;;12.00;46.40;;;12.33;49.15;102312.19;5066857;28;20420;-36
2024/01/28 05:59:55;;;;;;;;;;;12.10;46.30;;;12.36;48.10;102297.53;5067971;28;19925;-36
2024/01/28 06:02:23;;;;;;;;;;;12.20;46.30;;;12.40;47.96;102294.78;5065467;28;20011;-36
2024/01/28 06:04:51;;;;;;;;;;;12.20;46.10;;;12.40;48.53;102284.72;5055382;28;19931;-35
2024/01/28 06:07:19;;;;;;;;;;;12.30;46.10;;;12.44;47.91;102276.97;5052095;28;19925;-35
2024/01/28 06:09:48;;;;;;;;;;;12.30;45.90;;;12.47;48.86;102272.38;5052831;28;19931;-34
2024/01/28 06:12:18;;;;;;;;;;;12.30;45.90;;;12.46;48.75;102270.56;5051717;28;19925;-35
2024/01/28 06:14:46;;;;;;;;;;;12.40;45.90;;;12.49;48.80;102271.03;5052586;28;19925;-35
2024/01/28 06:17:15;;;;;;;;;;;12.40;45.90;;;12.45;48.38;102273.78;5052667;28;19925;-35
2024/01/28 06:19:44;;;;;;;;;;;12.30;45.80;;;12.41;48.54;102279.03;5044060;28;19971;-35
2024/01/28 06:22:12;;;;;;;;;;;12.30;45.80;;;12.35;48.18;102290.69;5052228;28;20427;-35
2024/01/28 06:24:42;;;;;;;;;;;12.30;45.90;;;12.27;48.35;102276.06;5052124;28;19999;-35
2024/01/28 06:27:11;;;;;;;;;;;12.20;45.90;;;12.21;48.66;102280.16;5052386;28;19947;-34
2024/01/28 06:29:39;;;;;;;;;;;12.10;46.00;;;12.17;48.33;102277.91;5052335;28;20062;-35
2024/01/28 06:32:07;;;;;;;;;;;12.10;46.10;;;12.12;48.65;102273.78;5053227;28;20403;-35
2024/01/28 06:34:35;;;;;;;;;;;12.00;46.10;;;12.06;49.66;102264.66;5055140;28;19925;-34
2024/01/28 06:37:04;;;;;;;;;;;12.00;46.20;;;12.01;49.81;102265.53;5055894;28;19924;-34
2024/01/28 06:39:32;;;;;;;;;;;11.90;46.20;;;11.99;49.57;102276.97;5056070;28;19933;-34
2024/01/28 06:42:00;;;;;;;;;;;11.90;46.30;;;11.97;48.86;102263.25;5055656;28;20396;-35
2024/01/28 06:44:29;;;;;;;;;;;11.80;46.20;;;11.90;48.87;102260.50;5054538;28;20020;-36
2024/01/28 06:46:57;;;;;;;;;;;11.80;46.30;;;11.88;49.32;102261.91;5055806;28;19924;-35
2024/01/28 06:49:25;;;;;;;;;;;11.80;46.40;;;11.87;49.43;102270.13;5055271;28;20441;-35
2024/01/28 06:51:53;;;;;;;;;;;11.70;46.30;;;11.87;49.16;102275.13;5055458;28;19925;-35
2024/01/28 06:54:21;;;;;;;;;;;11.70;46.20;;;11.85;49.28;102276.50;5054368;28;19932;-35
2024/01/28 06:56:49;;;;;;;;;;;11.70;46.30;;;11.86;49.68;102267.38;5055133;28;20354;-35
2024/01/28 06:59:18;;;;;;;;;;;11.70;46.30;;;11.85;49.02;102266.44;5055492;28;19972;-35
2024/01/28 07:01:48;;;;;;;;;;;11.70;46.30;;;11.85;48.75;102266.44;5055717;28;20347;-35
2024/01/28 07:04:16;;;;;;;;;;;11.70;46.30;;;11.86;49.08;102263.25;5054854;28;19924;-35
2024/01/28 07:06:44;;;;;;;;;;;11.70;46.20;;;11.88;48.81;102261.91;5054851;28;19983;-35
2024/01/28 07:09:13;;;;;;;;;;;11.70;46.20;;;11.91;48.94;102264.84;5055747;28;20015;-35
2024/01/28 07:11:40;;;;;;;;;;;11.70;46.20;;;11.93;48.48;102263.50;5055186;28;19929;-35
2024/01/28 07:14:08;;;;;;;;;;;11.80;46.30;;;11.98;48.32;102264.19;5054268;28;19925;-35
2024/01/28 07:16:36;;;;;;;;;;;11.80;46.30;;;12.00;48.88;102263.75;5054610;28;19931;-35
2024/01/28 07:19:10;;;;;;;;;;;11.80;46.20;;;12.02;48.72;102259.84;5054614;28;19982;-35
2024/01/28 07:21:38;;;;;;;;;;;11.80;46.10;;;12.04;48.38;102250.94;5054060;28;20384;-35
2024/01/28 07:24:06;;;;;;;;;;;11.80;46.10;;;12.06;49.24;102254.59;5053461;28;19986;-35
2024/01/28 07:26:36;;;;;;;;;;;11.90;46.10;;;12.11;48.79;102246.81;5054468;28;19967;-35
2024/01/28 07:29:04;;;;;;;;;;;11.90;46.00;;;12.13;48.85;102242.94;5054639;28;20311;-35
2024/01/28 07:31:32;;;;;;;;;;;11.90;46.00;;;12.13;48.41;102237.94;5053912;28;19979;-35
2024/01/28 07:34:01;;;;;;;;;;;11.90;46.00;;;12.19;48.43;102238.84;5053289;28;19933;-35
2024/01/28 07:36:31;;;;;;;;;;;11.90;46.10;;;12.22;48.67;102236.75;5053491;28;20404;-35
2024/01/28 07:39:04;;;;;;;;;;;12.00;46.30;;;12.28;48.57;102227.63;5053899;28;20342;-35
2024/01/28 07:41:34;;;;;;;;;;;12.00;46.10;;;12.31;48.54;102233.13;5053841;28;19925;-35
2024/01/28 07:44:02;;;;;;;;;;;12.10;46.00;;;12.37;48.94;102229.00;5051917;28;19964;-35
2024/01/28 07:46:30;;;;;;;;;;;12.20;46.00;;;12.38;48.00;102225.78;5053611;28;20495;-35
2024/01/28 07:48:58;;;;;;;;;;;12.20;45.80;;;12.41;48.86;102221.19;5053495;28;19994;-35
2024/01/28 07:51:26;;;;;;;;;;;12.30;46.40;;;12.45;47.71;102218.47;5054177;28;20229;-36
2024/01/28 07:53:55;;;;;;;;;;;12.30;45.70;;;12.48;47.57;102218.91;5053074;28;19925;-35
2024/01/28 07:56:23;;;;;;;;;;;12.30;45.50;;;12.48;48.80;102213.88;5065772;22;19909;-35
2024/01/28 07:58:51;;;;;;;;;;;12.30;45.50;;;12.47;47.56;102217.06;5055280;28;20360;-35
2024/01/28 08:01:19;;;;;;;;;;;12.30;45.50;;;12.43;48.31;102219.84;5053552;28;20303;-37
2024/01/28 08:03:49;;;;;;;;;;;12.30;45.50;;;12.37;48.53;102224.88;5052853;28;19929;-36
2024/01/28 08:06:17;;;;;;;;;;;12.30;45.60;;;12.32;48.32;102219.88;5053379;28;19925;-36
2024/01/28 08:08:45;;;;;;;;;;;12.20;45.60;;;12.25;49.15;102217.13;5053299;28;19932;-36
2024/01/28 08:11:15;;;;;;;;;;;12.20;45.80;;;12.19;48.63;102213.72;5053291;28;20268;-36
2024/01/28 08:13:43;;;;;;;;;;;12.10;45.80;;;12.14;48.82;102218.03;5052406;28;20274;-36
2024/01/28 08:16:10;;;;;;;;;;;12.00;45.80;;;12.09;48.67;102209.81;5052926;28;20015;-36
2024/01/28 08:18:39;;;;;;;;;;;12.00;46.00;;;12.00;49.07;102205.97;5052987;28;20039;-35
2024/01/28 08:21:07;;;;;;;;;;;11.90;46.00;;;11.97;49.33;102205.47;5053165;28;19925;-35
2024/01/28 08:23:35;;;;;;;;;;;11.90;46.10;;;11.97;48.94;102202.97;5052603;28;19931;-36
2024/01/28 08:26:03;;;;;;;;;;;11.80;46.10;;;11.96;48.76;102206.16;5052889;28;19925;-36
2024/01/28 08:28:32;;;;;;;;;;;11.80;46.30;;;11.93;48.94;102210.75;5052558;28;19931;-35
2024/01/28 08:31:00;;;;;;;;;;;11.80;46.30;;;11.92;48.92;102203.91;5053087;28;19928;-35
2024/01/28 08:33:28;;;;;;;;;;;11.80;46.30;;;11.87;49.86;102199.78;5052414;28;19924;-36
2024/01/28 08:35:56;;;;;;;;;;;11.70;46.30;;;11.90;49.73;102205.25;5052598;28;19925;-36
2024/01/28 08:38:24;;;;;;;;;;;11.70;46.30;;;11.91;49.29;102206.16;5052557;28;19931;-36
2024/01/28 08:40:52;;;;;;;;;;;11.70;46.30;;;11.93;49.29;102205.72;5044950;28;19979;-36
2024/01/28 08:43:20;;;;;;;;;;;11.70;46.30;;;11.95;49.49;102205.97;5051968;28;20027;-36
2024/01/28 08:45:49;;;;;;;;;;;11.80;46.30;;;12.00;49.56;102208.47;5052385;28;20027;-36
2024/01/28 08:48:17;;;;;;;;;;;11.80;46.20;;;12.04;48.78;102204.78;5052577;28;20285;-36
2024/01/28 08:50:46;;;;;;;;;;;11.80;46.20;;;12.08;48.29;102207.97;5052479;28;19933;-36
2024/01/28 08:53:14;;;;;;;;;;;11.90;46.20;;;12.13;48.45;102210.28;5051932;28;19970;-36
2024/01/28 08:55:42;;;;;;;;;;;11.90;46.10;;;12.17;48.44;102208.44;5051633;28;20351;-36
2024/01/28 08:58:10;;;;;;;;;;;11.90;46.00;;;12.21;48.92;102209.81;5053249;28;20008;-36
2024/01/28 09:00:39;;;;;;;;;;;12.00;46.10;;;12.25;48.94;102207.06;5052177;28;19967;-36
2024/01/28 09:03:08;;;;;;;;;;;12.00;46.00;;;12.30;49.31;102208.66;5051826;28;20301;-35
2024/01/28 09:05:36;;;;;;;;;;;12.10;46.00;;;12.33;49.02;102191.53;5052186;28;20395;-36
2024/01/28 09:08:05;;;;;;;;;;;12.10;45.90;;;12.38;48.08;102196.53;5052094;28;19931;-36
2024/01/28 09:10:33;;;;;;;;;;;12.20;45.90;;;12.39;48.38;102187.41;5052136;28;20019;-36
2024/01/28 09:13:00;;;;;;;;;;;12.20;45.90;;;12.46;47.85;102196.03;5051963;28;19925;-36
2024/01/28 09:15:28;;;;;;;;;;;12.20;45.80;;;12.47;48.40;102186.91;5052289;28;19987;-36
2024/01/28 09:17:57;;;;;;;;;;;12.30;45.70;;;12.53;48.74;102185.28;5052051;28;19964;-36
2024/01/28 09:20:26;;;;;;;;;;;12.30;45.70;;;12.59;48.21;102188.69;5052252;28;19929;-37
2024/01/28 09:22:54;;;;;;;;;;;12.40;45.70;;;12.59;47.84;102188.69;5044617;28;19925;-36
2024/01/28 09:25:22;;;;;;;;;;;12.40;45.70;;;12.58;48.15;102174.34;5057606;28;19925;-35
2024/01/28 09:27:52;;;;;;;;;;;12.40;45.60;;;12.65;48.58;102179.53;5061486;28;20391;-36
2024/01/28 09:30:20;;;;;;;;;;;12.40;45.70;;;12.69;48.19;102186.84;5058280;28;20385;-37
2024/01/28 09:32:48;;;;;;;;;;;12.50;45.60;;;12.69;48.12;102174.28;5055929;28;19962;-36
2024/01/28 09:35:16;;;;;;;;;;;12.50;45.50;;;12.74;48.56;102179.97;5052072;28;20391;-36
2024/01/28 09:37:46;;;;;;;;;;;12.50;45.40;;;12.78;47.74;102174.69;5051664;28;20019;-36
2024/01/28 09:40:14;;;;;;;;;;;12.60;45.40;;;12.76;47.72;102166.94;5051953;28;19954;-36
2024/01/28 09:42:44;;;;;;;;;;;12.60;45.30;;;12.79;48.06;102169.88;5051228;28;20057;-36
2024/01/28 09:45:12;;;;;;;;;;;12.60;45.30;;;12.76;48.22;102163.50;5051556;28;19931;-36
2024/01/28 09:47:40;;;;;;;;;;;12.60;45.30;;;12.76;48.56;102166.03;5051461;28;19925;-36
2024/01/28 09:50:09;;;;;;;;;;;12.60;45.30;;;12.42;47.56;102112.44;5054991;28;19924;-36
2024/01/28 09:52:37;;;;;;;;;;;12.60;45.40;;;12.63;47.73;102154.88;5057083;28;19925;-36
2024/01/28 09:55:07;;;;;;;;;;;12.50;45.40;;;12.66;48.29;102163.75;5057334;28;20031;-37
2024/01/28 09:57:35;;;;;;;;;;;12.50;45.50;;;12.65;48.02;102164.44;5057368;28;19924;-36
2024/01/28 10:00:04;;;;;;;;;;;12.50;45.60;;;12.62;48.46;102160.59;5055400;28;20006;-36
2024/01/28 10:02:32;;;;;;;;;;;12.50;45.70;;;12.51;48.42;102143.94;5053928;28;19929;-36
2024/01/28 10:05:00;;;;;;;;;;;12.40;45.80;;;12.57;48.35;102164.97;5053629;28;19925;-36
2024/01/28 10:07:29;;;;;;;;;;;12.40;45.90;;;12.56;48.44;102152.16;5053624;28;20392;-35
2024/01/28 10:09:57;;;;;;;;;;;12.40;46.00;;;12.54;48.48;102153.53;5047883;28;19971;-36
2024/01/28 10:12:26;;;;;;;;;;;12.30;46.60;;;12.52;48.32;102155.81;5055355;28;19970;-36
2024/01/28 10:14:54;;;;;;;;;;;12.30;46.20;;;12.51;48.72;102150.56;5055101;28;19925;-36
2024/01/28 10:17:22;;;;;;;;;;;12.30;46.30;;;12.48;49.18;102146.00;5055620;28;19925;-36
2024/01/28 10:19:50;;;;;;;;;;;12.30;46.30;;;12.48;49.19;102143.47;5055408;28;19933;-36
2024/01/28 10:22:19;;;;;;;;;;;12.30;46.40;;;12.47;48.34;102141.66;5055023;28;19925;-36
2024/01/28 10:24:47;;;;;;;;;;;12.30;46.50;;;12.47;48.96;102146.69;5055051;28;19925;-36
2024/01/28 10:27:15;;;;;;;;;;;12.20;46.50;;;12.46;49.33;102144.84;5055084;28;20335;-36
2024/01/28 10:29:45;;;;;;;;;;;12.20;46.60;;;12.35;48.88;102125.69;5055302;28;19953;-36
2024/01/28 10:32:13;;;;;;;;;;;12.20;46.60;;;12.43;48.75;102145.34;5055609;28;19963;-36
2024/01/28 10:34:41;;;;;;;;;;;12.30;46.70;;;12.47;49.81;102149.19;5055864;28;19960;-36
2024/01/28 10:37:09;;;;;;;;;;;12.30;46.70;;;12.28;49.23;102114.53;5055205;28;19947;-35
2024/01/28 10:39:37;;;;;;;;;;;12.30;46.80;;;12.50;50.05;102152.19;5056175;28;20019;-36
2024/01/28 10:42:05;;;;;;;;;;;12.30;46.80;;;12.53;49.21;102150.09;5056053;28;20011;-35
2024/01/28 10:44:34;;;;;;;;;;;12.30;46.80;;;12.54;49.51;102144.38;5054706;28;19971;-35
2024/01/28 10:47:06;;;;;;;;;;;12.30;46.80;;;12.57;49.07;102143.94;5054841;28;19956;-37
2024/01/28 10:49:34;;;;;;;;;;;12.40;46.80;;;12.52;49.34;102127.25;5054722;28;19975;-36
2024/01/28 10:52:02;;;;;;;;;;;12.40;46.80;;;12.62;48.90;102133.84;5055041;28;19925;-36
2024/01/28 10:54:30;;;;;;;;;;;12.40;46.70;;;12.67;49.39;102127.88;5053862;28;19925;-36
2024/01/28 10:56:58;;;;;;;;;;;12.40;46.60;;;12.69;48.73;102121.47;5048055;28;19990;-36
2024/01/28 10:59:26;;;;;;;;;;;12.50;46.60;;;12.73;49.26;102125.31;5054699;28;19925;-36
2024/01/28 11:01:54;;;;;;;;;;;12.50;46.50;;;12.76;49.16;102114.13;5054252;28;20380;-36
2024/01/28 11:04:23;;;;;;;;;;;12.50;46.50;;;12.73;48.15;102098.56;5054034;28;19924;-36
2024/01/28 11:06:51;;;;;;;;;;;12.60;46.50;;;12.78;48.64;102100.13;5054021;28;19994;-36
2024/01/28 11:09:20;;;;;;;;;;;12.60;46.40;;;12.85;48.02;102105.38;5054701;28;19924;-36
2024/01/28 11:11:48;;;;;;;;;;;12.60;46.30;;;12.89;48.64;102097.59;5054160;28;19978;-36
2024/01/28 11:14:16;;;;;;;;;;;12.70;46.30;;;12.93;48.41;102087.94;5054260;28;20019;-36